createdAt,value
2022-10-22T00:00:18.213Z,669
2022-10-22T00:02:18.026Z,657
2022-10-22T00:04:17.877Z,599
2022-10-22T00:06:17.665Z,561
2022-10-22T00:08:17.530Z,680
2022-10-22T00:10:18.312Z,603
2022-10-22T00:12:18.104Z,550
2022-10-22T00:14:17.870Z,597
2022-10-22T00:16:17.662Z,572
2022-10-22T00:18:17.643Z,624
2022-10-22T00:20:17.501Z,592
2022-10-22T00:22:18.353Z,602
2022-10-22T00:24:18.148Z,593
2022-10-22T00:26:22.966Z,591
2022-10-22T00:28:17.838Z,604
2022-10-22T00:30:17.653Z,626
2022-10-22T00:32:17.431Z,618
2022-10-22T00:34:18.200Z,604
2022-10-22T00:36:18.036Z,576
2022-10-22T00:38:17.985Z,571
2022-10-22T00:40:17.759Z,570
2022-10-22T00:42:17.699Z,579
2022-10-22T00:44:17.538Z,567
2022-10-22T00:46:18.323Z,555
2022-10-22T00:48:18.171Z,565
2022-10-22T00:50:18.066Z,576
2022-10-22T00:52:17.844Z,569
2022-10-22T00:54:17.620Z,565
2022-10-22T00:56:17.403Z,561
2022-10-22T00:58:18.213Z,591
2022-10-22T01:00:18.020Z,557
2022-10-22T01:02:17.853Z,557
2022-10-22T01:04:17.655Z,561
2022-10-22T01:06:17.467Z,501
2022-10-22T01:08:18.357Z,612
2022-10-22T01:10:18.155Z,560
2022-10-22T01:12:18.001Z,516
2022-10-22T01:14:17.920Z,606
2022-10-22T01:16:17.726Z,565
2022-10-22T01:18:17.617Z,551
2022-10-22T01:20:17.501Z,584
2022-10-22T01:22:18.319Z,562
2022-10-22T01:24:18.194Z,551
2022-10-22T01:26:18.070Z,542
2022-10-22T01:28:17.948Z,576
2022-10-22T01:30:17.751Z,557
2022-10-22T01:32:17.603Z,609
2022-10-22T01:34:17.755Z,559
2022-10-22T01:36:17.536Z,544
2022-10-22T01:38:18.353Z,560
2022-10-22T01:40:18.220Z,550
2022-10-22T01:42:17.462Z,512
2022-10-22T01:44:18.293Z,535
2022-10-22T01:46:18.094Z,616
2022-10-22T01:48:17.896Z,570
2022-10-22T01:50:17.744Z,550
2022-10-22T01:52:17.495Z,495
2022-10-22T01:54:18.296Z,585
2022-10-22T01:56:18.194Z,532
2022-10-22T01:58:18.093Z,534
2022-10-22T02:00:17.869Z,561
2022-10-22T02:02:17.686Z,538
2022-10-22T02:04:17.560Z,531
2022-10-22T02:06:17.423Z,501
2022-10-22T02:08:18.328Z,532
2022-10-22T02:10:18.177Z,534
2022-10-22T02:12:18.174Z,473
2022-10-22T02:14:18.124Z,551
2022-10-22T02:16:17.944Z,497
2022-10-22T02:18:17.907Z,615
2022-10-22T02:20:17.653Z,525
2022-10-22T02:22:17.400Z,604
2022-10-22T02:24:18.134Z,520
2022-10-22T02:26:18.039Z,573
2022-10-22T02:28:17.835Z,583
2022-10-22T02:30:17.742Z,581
2022-10-22T02:32:17.612Z,573
2022-10-22T02:34:17.421Z,596
2022-10-22T02:36:18.184Z,573
2022-10-22T02:38:18.048Z,569
2022-10-22T02:40:17.882Z,617
2022-10-22T02:42:17.694Z,590
2022-10-22T02:44:17.523Z,569
2022-10-22T02:46:18.327Z,517
2022-10-22T02:48:18.252Z,651
2022-10-22T02:50:18.140Z,544
2022-10-22T02:52:17.962Z,605
2022-10-22T02:54:17.845Z,490
2022-10-22T02:56:18.173Z,575
2022-10-22T02:58:17.959Z,525
2022-10-22T03:00:17.833Z,591
2022-10-22T03:02:17.673Z,530
2022-10-22T03:04:17.511Z,573
2022-10-22T03:06:18.388Z,569
2022-10-22T03:08:17.647Z,625
2022-10-22T03:10:17.440Z,574
2022-10-22T03:12:18.262Z,564
2022-10-22T03:14:18.204Z,563
2022-10-22T03:16:17.982Z,549
2022-10-22T03:18:17.950Z,571
2022-10-22T03:20:17.800Z,495
2022-10-22T03:22:17.576Z,569
2022-10-22T03:24:18.443Z,591
2022-10-22T03:26:18.229Z,548
2022-10-22T03:28:17.999Z,598
2022-10-22T03:30:17.830Z,581
2022-10-22T03:32:17.558Z,539
2022-10-22T03:34:17.415Z,563
2022-10-22T03:36:18.259Z,559
2022-10-22T03:38:18.344Z,580
2022-10-22T03:40:17.585Z,564
2022-10-22T03:42:17.398Z,500
2022-10-22T03:44:18.323Z,609
2022-10-22T03:46:18.118Z,601
2022-10-22T03:48:17.873Z,509
2022-10-22T03:50:17.779Z,550
2022-10-22T03:52:17.594Z,603
2022-10-22T03:54:17.461Z,557
2022-10-22T03:56:18.285Z,579
2022-10-22T03:58:18.176Z,546
2022-10-22T04:00:17.986Z,551
2022-10-22T04:02:17.829Z,602
2022-10-22T04:04:17.552Z,544
2022-10-22T04:06:18.368Z,565
2022-10-22T04:08:18.207Z,552
2022-10-22T04:10:17.998Z,483
2022-10-22T04:12:17.858Z,548
2022-10-22T04:14:17.698Z,560
2022-10-22T04:16:17.839Z,510
2022-10-22T04:18:17.757Z,530
2022-10-22T04:20:17.600Z,554
2022-10-22T04:22:17.462Z,611
2022-10-22T04:24:18.295Z,532
2022-10-22T04:26:17.816Z,561
2022-10-22T04:28:17.658Z,533
2022-10-22T04:30:17.489Z,585
2022-10-22T04:32:18.441Z,543
2022-10-22T04:34:18.252Z,534
2022-10-22T04:36:18.193Z,575
2022-10-22T04:38:18.005Z,498
2022-10-22T04:40:17.868Z,557
2022-10-22T04:42:17.940Z,537
2022-10-22T04:44:18.189Z,561
2022-10-22T04:46:17.570Z,608
2022-10-22T04:48:18.412Z,577
2022-10-22T04:50:18.204Z,591
2022-10-22T04:52:18.076Z,614
2022-10-22T04:54:18.020Z,582
2022-10-22T04:56:17.876Z,599
2022-10-22T04:58:17.735Z,570
2022-10-22T05:00:17.637Z,641
2022-10-22T05:02:17.499Z,535
2022-10-22T05:04:17.439Z,579
2022-10-22T05:06:18.467Z,563
2022-10-22T05:08:18.323Z,516
2022-10-22T05:10:18.188Z,611
2022-10-22T05:12:17.998Z,628
2022-10-22T05:14:17.848Z,557
2022-10-22T05:16:17.653Z,553
2022-10-22T05:18:19.009Z,609
2022-10-22T05:20:17.707Z,537
2022-10-22T05:22:17.520Z,572
2022-10-22T05:24:17.445Z,565
2022-10-22T05:26:18.350Z,558
2022-10-22T05:28:18.142Z,510
2022-10-22T05:30:18.052Z,559
2022-10-22T05:32:18.391Z,553
2022-10-22T05:34:18.246Z,518
2022-10-22T05:36:22.051Z,615
2022-10-22T05:38:17.943Z,553
2022-10-22T05:40:19.710Z,565
2022-10-22T05:42:17.734Z,502
2022-10-22T05:44:17.601Z,564
2022-10-22T05:46:21.368Z,528
2022-10-22T05:48:18.065Z,555
2022-10-22T05:50:17.963Z,560
2022-10-22T05:52:17.888Z,548
2022-10-22T05:54:17.681Z,523
2022-10-22T05:56:17.527Z,553
2022-10-22T05:58:18.437Z,571
2022-10-22T06:00:18.332Z,524
2022-10-22T06:02:18.285Z,552
2022-10-22T06:04:18.163Z,510
2022-10-22T06:06:18.006Z,529
2022-10-22T06:08:18.947Z,575
2022-10-22T06:10:18.159Z,523
2022-10-22T06:12:18.091Z,495
2022-10-22T06:14:17.996Z,541
2022-10-22T06:16:17.923Z,565
2022-10-22T06:18:18.016Z,485
2022-10-22T06:20:17.884Z,540
2022-10-22T06:22:17.700Z,540
2022-10-22T06:24:17.564Z,576
2022-10-22T06:26:17.421Z,559
2022-10-22T06:28:18.336Z,574
2022-10-22T06:30:18.227Z,600
2022-10-22T06:32:18.130Z,558
2022-10-22T06:34:17.405Z,498
2022-10-22T06:36:18.318Z,571
2022-10-22T06:38:18.211Z,549
2022-10-22T06:40:18.043Z,573
2022-10-22T06:42:17.856Z,571
2022-10-22T06:44:17.634Z,615
2022-10-22T06:46:18.998Z,481
2022-10-22T06:48:17.921Z,565
2022-10-22T06:50:17.771Z,586
2022-10-22T06:52:22.604Z,550
2022-10-22T06:54:17.404Z,577
2022-10-22T06:56:23.236Z,555
2022-10-22T06:58:18.138Z,575
2022-10-22T07:00:18.027Z,560
2022-10-22T07:02:17.871Z,575
2022-10-22T07:04:17.870Z,571
2022-10-22T07:06:17.701Z,564
2022-10-22T07:08:17.629Z,669
2022-10-22T07:10:18.075Z,636
2022-10-22T07:12:17.918Z,677
2022-10-22T07:14:17.859Z,706
2022-10-22T07:16:17.761Z,685
2022-10-22T07:18:17.713Z,660
2022-10-22T07:20:17.632Z,683
2022-10-22T07:22:17.414Z,727
2022-10-22T07:24:18.255Z,677
2022-10-22T07:26:18.132Z,654
2022-10-22T07:28:18.084Z,680
2022-10-22T07:30:17.829Z,680
2022-10-22T07:32:19.639Z,742
2022-10-22T07:34:17.738Z,698
2022-10-22T07:36:17.719Z,710
2022-10-22T07:38:17.599Z,715
2022-10-22T07:40:17.448Z,705
2022-10-22T07:42:18.276Z,720
2022-10-22T07:44:18.097Z,758
2022-10-22T07:46:17.977Z,717
2022-10-22T07:48:22.970Z,706
2022-10-22T07:50:17.794Z,637
2022-10-22T07:52:17.601Z,727
2022-10-22T07:54:17.403Z,624
2022-10-22T07:56:18.283Z,721
2022-10-22T07:58:18.191Z,704
2022-10-22T08:00:19.395Z,704
2022-10-22T08:02:17.581Z,680
2022-10-22T08:04:17.485Z,677
2022-10-22T08:06:18.434Z,676
2022-10-22T08:08:18.261Z,650
2022-10-22T08:10:18.116Z,713
2022-10-22T08:12:17.923Z,650
2022-10-22T08:14:17.824Z,627
2022-10-22T08:16:17.597Z,564
2022-10-22T08:18:17.689Z,693
2022-10-22T08:20:17.524Z,636
2022-10-22T08:22:18.355Z,574
2022-10-22T08:24:18.147Z,620
2022-10-22T08:26:18.012Z,643
2022-10-22T08:28:19.805Z,631
2022-10-22T08:30:17.864Z,654
2022-10-22T08:32:17.781Z,698
2022-10-22T08:34:17.648Z,638
2022-10-22T08:36:17.475Z,665
2022-10-22T08:38:18.287Z,636
2022-10-22T08:40:18.116Z,606
2022-10-22T08:42:17.981Z,622
2022-10-22T08:44:17.850Z,692
2022-10-22T08:46:17.679Z,612
2022-10-22T08:48:17.487Z,614
2022-10-22T08:50:18.338Z,702
2022-10-22T08:52:18.221Z,701
2022-10-22T08:54:18.187Z,649
2022-10-22T08:56:18.113Z,640
2022-10-22T08:58:18.017Z,643
2022-10-22T09:00:17.884Z,667
2022-10-22T09:02:17.761Z,645
2022-10-22T09:04:17.621Z,674
2022-10-22T09:06:17.421Z,598
2022-10-22T09:08:18.244Z,601
2022-10-22T09:10:18.185Z,592
2022-10-22T09:12:19.393Z,672
2022-10-22T09:14:17.414Z,670
2022-10-22T09:16:18.224Z,630
2022-10-22T09:18:18.281Z,660
2022-10-22T09:20:18.117Z,603
2022-10-22T09:22:18.332Z,643
2022-10-22T09:24:18.176Z,618
2022-10-22T09:26:18.075Z,660
2022-10-22T09:28:17.977Z,614
2022-10-22T09:30:17.850Z,600
2022-10-22T09:32:17.844Z,605
2022-10-22T09:34:17.688Z,618
2022-10-22T09:36:17.628Z,641
2022-10-22T09:38:17.483Z,644
2022-10-22T09:40:18.439Z,620
2022-10-22T09:42:18.360Z,648
2022-10-22T09:44:18.242Z,638
2022-10-22T09:46:18.058Z,623
2022-10-22T09:48:17.984Z,651
2022-10-22T09:50:17.757Z,634
2022-10-22T09:52:17.581Z,611
2022-10-22T09:54:17.408Z,651
2022-10-22T09:56:18.327Z,647
2022-10-22T09:58:18.092Z,641
2022-10-22T10:00:17.983Z,610
2022-10-22T10:02:37.363Z,616
2022-10-22T10:04:17.910Z,615
2022-10-22T10:06:17.807Z,618
2022-10-22T10:08:17.645Z,588
2022-10-22T10:10:17.630Z,660
2022-10-22T10:12:17.532Z,549
2022-10-22T10:14:17.342Z,621
2022-10-22T10:16:18.231Z,593
2022-10-22T10:18:17.601Z,636
2022-10-22T10:20:17.462Z,632
2022-10-22T10:22:18.350Z,609
2022-10-22T10:24:18.172Z,625
2022-10-22T10:26:18.031Z,605
2022-10-22T10:28:17.878Z,617
2022-10-22T10:30:17.695Z,568
2022-10-22T10:32:19.860Z,509
2022-10-22T10:34:23.249Z,559
2022-10-22T10:36:18.210Z,500
2022-10-22T10:38:18.075Z,530
2022-10-22T10:40:17.925Z,508
2022-10-22T10:42:17.802Z,471
2022-10-22T10:44:17.686Z,503
2022-10-22T10:48:22.478Z,588
2022-10-22T10:50:17.424Z,483
2022-10-22T10:52:19.014Z,548
2022-10-22T10:54:18.106Z,534
2022-10-22T10:56:17.954Z,526
2022-10-22T10:58:17.827Z,480
2022-10-22T11:00:17.646Z,583
2022-10-22T11:02:17.463Z,575
2022-10-22T11:04:18.239Z,534
2022-10-22T11:06:18.593Z,538
2022-10-22T11:08:18.349Z,536
2022-10-22T11:10:18.207Z,531
2022-10-22T11:12:18.062Z,537
2022-10-22T11:14:17.934Z,569
2022-10-22T11:16:17.774Z,549
2022-10-22T11:18:17.827Z,574
2022-10-22T11:20:17.697Z,540
2022-10-22T11:22:17.663Z,614
2022-10-22T11:24:17.548Z,572
2022-10-22T11:26:17.520Z,540
2022-10-22T11:28:18.275Z,584
2022-10-22T11:30:18.066Z,535
2022-10-22T11:32:17.886Z,551
2022-10-22T11:34:34.214Z,523
2022-10-22T11:36:18.503Z,550
2022-10-22T11:38:18.414Z,513
2022-10-22T11:40:18.257Z,543
2022-10-22T11:42:18.086Z,526
2022-10-22T11:44:18.021Z,515
2022-10-22T11:46:17.791Z,496
2022-10-22T11:48:22.587Z,554
2022-10-22T11:50:17.435Z,530
2022-10-22T11:52:18.252Z,525
2022-10-22T11:54:18.042Z,521
2022-10-22T11:56:17.840Z,586
2022-10-22T11:58:17.670Z,521
2022-10-22T12:00:17.520Z,522
2022-10-22T12:02:18.304Z,542
2022-10-22T12:04:18.098Z,540
2022-10-22T12:06:17.848Z,537
2022-10-22T12:08:17.725Z,522
2022-10-22T12:10:18.399Z,553
2022-10-22T12:12:17.491Z,580
2022-10-22T12:14:18.325Z,539
2022-10-22T12:16:23.660Z,607
2022-10-22T12:18:18.426Z,590
2022-10-22T12:20:18.200Z,575
2022-10-22T12:22:18.057Z,613
2022-10-22T12:24:17.904Z,481
2022-10-22T12:26:22.823Z,587
2022-10-22T12:28:17.710Z,557
2022-10-22T12:30:17.685Z,552
2022-10-22T12:32:17.515Z,559
2022-10-22T12:34:18.354Z,539
2022-10-22T12:36:18.212Z,554
2022-10-22T12:38:18.095Z,558
2022-10-22T12:40:17.921Z,572
2022-10-22T12:42:17.728Z,634
2022-10-22T12:44:17.771Z,650
2022-10-22T12:46:17.630Z,589
2022-10-22T12:48:17.853Z,615
2022-10-22T12:50:17.716Z,635
2022-10-22T12:52:17.496Z,632
2022-10-22T12:54:18.317Z,669
2022-10-22T12:56:18.079Z,683
2022-10-22T12:58:17.947Z,669
2022-10-22T13:00:17.714Z,642
2022-10-22T13:02:17.530Z,667
2022-10-22T13:04:18.277Z,705
2022-10-22T13:06:18.075Z,684
2022-10-22T13:08:18.123Z,710
2022-10-22T13:10:17.892Z,654
2022-10-22T13:12:17.655Z,662
2022-10-22T13:14:17.600Z,669
2022-10-22T13:16:17.376Z,650
2022-10-22T13:18:18.368Z,680
2022-10-22T13:20:18.193Z,637
2022-10-22T13:22:17.972Z,725
2022-10-22T13:24:17.837Z,683
2022-10-22T13:26:17.649Z,674
2022-10-22T13:28:17.387Z,663
2022-10-22T13:30:18.288Z,674
2022-10-22T13:32:18.292Z,676
2022-10-22T13:34:18.155Z,679
2022-10-22T13:36:18.016Z,672
2022-10-22T13:38:17.808Z,716
2022-10-22T13:40:17.626Z,695
2022-10-22T13:42:17.475Z,629
2022-10-22T13:44:18.278Z,678
2022-10-22T13:46:18.024Z,665
2022-10-22T13:48:17.833Z,655
2022-10-22T13:50:17.691Z,706
2022-10-22T13:52:17.490Z,652
2022-10-22T13:54:18.301Z,734
2022-10-22T13:56:18.179Z,674
2022-10-22T14:00:17.706Z,663
2022-10-22T14:02:17.533Z,670
2022-10-22T14:04:18.307Z,659
2022-10-22T14:06:18.091Z,676
2022-10-22T14:08:17.889Z,717
2022-10-22T14:10:17.743Z,700
2022-10-22T14:12:17.837Z,637
2022-10-22T14:14:17.655Z,630
2022-10-22T14:16:17.506Z,626
2022-10-22T14:18:17.433Z,679
2022-10-22T14:20:18.210Z,620
2022-10-22T14:22:18.099Z,654
2022-10-22T14:24:17.867Z,651
2022-10-22T14:26:17.688Z,581
2022-10-22T14:28:17.432Z,655
2022-10-22T14:30:18.238Z,688
2022-10-22T14:32:18.091Z,698
2022-10-22T14:34:17.902Z,670
2022-10-22T14:36:17.693Z,671
2022-10-22T14:38:17.551Z,675
2022-10-22T14:40:18.371Z,680
2022-10-22T14:42:18.107Z,707
2022-10-22T14:44:17.920Z,685
2022-10-22T14:46:18.168Z,688
2022-10-22T14:50:18.045Z,677
2022-10-22T14:52:17.866Z,685
2022-10-22T14:54:17.690Z,694
2022-10-22T14:56:17.528Z,698
2022-10-22T14:58:18.391Z,676
2022-10-22T15:00:18.268Z,687
2022-10-22T15:02:18.066Z,692
2022-10-22T15:04:17.839Z,691
2022-10-22T15:06:17.635Z,689
2022-10-22T15:08:17.428Z,690
2022-10-22T15:10:18.567Z,689
2022-10-22T15:12:17.395Z,662
2022-10-22T15:14:18.216Z,704
2022-10-22T15:16:18.093Z,703
2022-10-22T15:18:17.384Z,675
2022-10-22T15:20:18.194Z,680
2022-10-22T15:22:18.017Z,702
2022-10-22T15:24:17.833Z,664
2022-10-22T15:26:17.646Z,712
2022-10-22T15:28:17.548Z,736
2022-10-22T15:30:18.367Z,725
2022-10-22T15:32:18.161Z,684
2022-10-22T15:34:17.991Z,729
2022-10-22T15:36:17.814Z,685
2022-10-22T15:38:17.843Z,699
2022-10-22T15:40:17.706Z,689
2022-10-22T15:42:17.771Z,713
2022-10-22T15:44:17.684Z,705
2022-10-22T15:46:17.537Z,692
2022-10-22T15:48:18.368Z,708
2022-10-22T15:50:18.195Z,732
2022-10-22T15:52:18.043Z,698
2022-10-22T15:54:18.047Z,703
2022-10-22T15:56:18.145Z,755
2022-10-22T15:58:18.067Z,683
2022-10-22T16:00:17.913Z,675
2022-10-22T16:02:17.771Z,686
2022-10-22T16:04:17.735Z,692
2022-10-22T16:06:17.572Z,728
2022-10-22T16:08:17.387Z,706
2022-10-22T16:10:18.188Z,691
2022-10-22T16:12:18.038Z,706
2022-10-22T16:14:18.155Z,655
2022-10-22T16:16:17.976Z,744
2022-10-22T16:18:18.052Z,716
2022-10-22T16:20:17.826Z,647
2022-10-22T16:22:17.645Z,728
2022-10-22T16:24:17.466Z,693
2022-10-22T16:26:18.303Z,675
2022-10-22T16:28:18.131Z,668
2022-10-22T16:30:17.941Z,619
2022-10-22T16:32:17.769Z,674
2022-10-22T16:34:17.618Z,679
2022-10-22T16:36:17.408Z,682
2022-10-22T16:38:18.184Z,621
2022-10-22T16:40:17.993Z,694
2022-10-22T16:42:17.815Z,637
2022-10-22T16:44:17.901Z,676
2022-10-22T16:46:17.709Z,724
2022-10-22T16:48:17.834Z,670
2022-10-22T16:50:19.714Z,738
2022-10-22T16:52:17.553Z,713
2022-10-22T16:54:18.518Z,742
2022-10-22T16:56:18.264Z,747
2022-10-22T16:58:18.044Z,703
2022-10-22T17:00:17.901Z,687
2022-10-22T17:02:17.695Z,731
2022-10-22T17:04:17.467Z,744
2022-10-22T17:06:18.223Z,676
2022-10-22T17:08:18.046Z,728
2022-10-22T17:10:17.951Z,756
2022-10-22T17:12:17.814Z,742
2022-10-22T17:14:17.587Z,747
2022-10-22T17:16:17.588Z,676
2022-10-22T17:18:17.530Z,781
2022-10-22T17:20:18.346Z,754
2022-10-22T17:22:18.394Z,745
2022-10-22T17:24:18.472Z,744
2022-10-22T17:26:18.348Z,748
2022-10-22T17:28:18.161Z,734
2022-10-22T17:30:19.949Z,753
2022-10-22T17:32:17.843Z,769
2022-10-22T17:34:17.625Z,766
2022-10-22T17:36:17.443Z,716
2022-10-22T17:38:18.348Z,792
2022-10-22T17:40:17.353Z,758
2022-10-22T17:42:18.140Z,771
2022-10-22T17:44:18.037Z,762
2022-10-22T17:46:17.875Z,795
2022-10-22T17:48:17.665Z,767
2022-10-22T17:50:17.503Z,756
2022-10-22T17:52:17.565Z,776
2022-10-22T17:54:18.369Z,784
2022-10-22T17:56:18.131Z,723
2022-10-22T17:58:17.986Z,724
2022-10-22T18:02:17.777Z,851
2022-10-22T18:04:17.550Z,771
2022-10-22T18:06:18.382Z,781
2022-10-22T18:08:18.190Z,812
2022-10-22T18:10:18.075Z,799
2022-10-22T18:12:17.938Z,857
2022-10-22T18:14:17.760Z,853
2022-10-22T18:16:17.551Z,821
2022-10-22T18:18:17.521Z,807
2022-10-22T18:20:18.263Z,861
2022-10-22T18:22:18.127Z,844
2022-10-22T18:24:17.877Z,864
2022-10-22T18:26:17.915Z,855
2022-10-22T18:28:23.252Z,794
2022-10-22T18:30:18.346Z,843
2022-10-22T18:32:18.196Z,909
2022-10-22T18:34:19.138Z,855
2022-10-22T18:36:17.675Z,838
2022-10-22T18:38:17.607Z,808
2022-10-22T18:40:17.470Z,903
2022-10-22T18:42:18.280Z,886
2022-10-22T18:44:18.152Z,888
2022-10-22T18:46:17.937Z,873
2022-10-22T18:48:17.794Z,873
2022-10-22T18:50:17.703Z,863
2022-10-22T18:52:17.535Z,884
2022-10-22T18:54:22.978Z,900
2022-10-22T18:56:18.007Z,841
2022-10-22T18:58:17.826Z,850
2022-10-22T19:00:17.646Z,861
2022-10-22T19:02:17.416Z,856
2022-10-22T19:04:18.282Z,874
2022-10-22T19:06:18.173Z,851
2022-10-22T19:08:18.079Z,851
2022-10-22T19:10:18.005Z,852
2022-10-22T19:12:17.880Z,834
2022-10-22T19:14:17.778Z,843
2022-10-22T19:16:17.688Z,782
2022-10-22T19:18:17.607Z,867
2022-10-22T19:20:17.461Z,914
2022-10-22T19:22:18.224Z,857
2022-10-22T19:24:18.037Z,840
2022-10-22T19:26:17.841Z,846
2022-10-22T19:28:17.589Z,864
2022-10-22T19:30:17.455Z,873
2022-10-22T19:32:18.319Z,846
2022-10-22T19:34:18.108Z,823
2022-10-22T19:36:17.992Z,872
2022-10-22T19:38:17.796Z,860
2022-10-22T19:40:17.610Z,822
2022-10-22T19:42:17.450Z,853
2022-10-22T19:44:18.296Z,826
2022-10-22T19:46:18.091Z,872
2022-10-22T19:48:19.026Z,883
2022-10-22T19:50:17.833Z,817
2022-10-22T19:52:17.710Z,811
2022-10-22T19:54:17.616Z,816
2022-10-22T19:56:17.481Z,819
2022-10-22T19:58:18.380Z,858
2022-10-22T20:00:18.310Z,903
2022-10-22T20:02:18.079Z,815
2022-10-22T20:04:17.845Z,913
2022-10-22T20:06:17.613Z,841
2022-10-22T20:08:17.397Z,774
2022-10-22T20:10:18.209Z,876
2022-10-22T20:12:17.994Z,840
2022-10-22T20:14:17.861Z,869
2022-10-22T20:16:17.852Z,894
2022-10-22T20:18:17.884Z,901
2022-10-22T20:20:17.963Z,903
2022-10-22T20:22:18.678Z,902
2022-10-22T20:24:17.831Z,884
2022-10-22T20:26:17.657Z,893
2022-10-22T20:28:17.459Z,875
2022-10-22T20:30:18.350Z,912
2022-10-22T20:32:18.247Z,931
2022-10-22T20:34:18.107Z,918
2022-10-22T20:36:17.898Z,881
2022-10-22T20:38:17.694Z,891
2022-10-22T20:40:17.516Z,883
2022-10-22T20:42:18.286Z,926
2022-10-22T20:44:18.169Z,836
2022-10-22T20:46:17.969Z,852
2022-10-22T20:48:18.044Z,872
2022-10-22T20:50:17.894Z,830
2022-10-22T20:52:17.798Z,776
2022-10-22T20:54:17.683Z,870
2022-10-22T20:56:17.476Z,879
2022-10-22T20:58:18.234Z,856
2022-10-22T21:00:17.971Z,855
2022-10-22T21:02:17.800Z,912
2022-10-22T21:04:17.609Z,822
2022-10-22T21:06:17.439Z,939
2022-10-22T21:08:18.273Z,903
2022-10-22T21:10:18.039Z,907
2022-10-22T21:12:17.857Z,841
2022-10-22T21:14:17.640Z,849
2022-10-22T21:16:17.499Z,810
2022-10-22T21:18:17.449Z,829
2022-10-22T21:20:19.754Z,786
2022-10-22T21:22:18.160Z,732
2022-10-22T21:24:17.961Z,817
2022-10-22T21:26:17.699Z,836
2022-10-22T21:28:17.508Z,818
2022-10-22T21:30:18.489Z,802
2022-10-22T21:32:18.287Z,796
2022-10-22T21:34:18.174Z,765
2022-10-22T21:36:22.361Z,754
2022-10-22T21:38:18.316Z,780
2022-10-22T21:40:18.133Z,762
2022-10-22T21:42:17.982Z,755
2022-10-22T21:44:17.868Z,772
2022-10-22T21:46:17.687Z,1104
2022-10-22T21:48:17.439Z,985
2022-10-22T21:50:18.363Z,956
2022-10-22T21:52:18.123Z,1043
2022-10-22T21:54:18.205Z,1125
2022-10-22T21:56:18.013Z,1075
2022-10-22T21:58:17.848Z,1097
2022-10-22T22:00:17.753Z,1103
2022-10-22T22:02:17.652Z,1005
2022-10-22T22:04:17.440Z,1061
2022-10-22T22:06:20.477Z,1075
2022-10-22T22:08:18.350Z,1097
2022-10-22T22:10:18.141Z,1099
2022-10-22T22:12:18.002Z,1103
2022-10-22T22:14:17.829Z,1085
2022-10-22T22:16:17.647Z,1102
2022-10-22T22:18:17.701Z,1132
2022-10-22T22:20:17.511Z,1096
2022-10-22T22:22:17.447Z,1127
2022-10-22T22:24:18.362Z,1145
2022-10-22T22:26:18.210Z,1145
2022-10-22T22:28:17.963Z,1089
2022-10-22T22:30:17.759Z,1129
2022-10-22T22:32:17.539Z,1172
2022-10-22T22:34:18.354Z,1127
2022-10-22T22:36:18.169Z,1111
2022-10-22T22:38:17.991Z,1101
2022-10-22T22:40:17.789Z,1107
2022-10-22T22:42:17.617Z,1121
2022-10-22T22:44:17.468Z,1131
2022-10-22T22:46:18.289Z,1084
2022-10-22T22:48:18.071Z,1050
2022-10-22T22:50:17.865Z,1144
2022-10-22T22:52:17.616Z,1117
2022-10-22T22:54:17.503Z,1118
2022-10-22T22:56:17.507Z,1057
2022-10-22T22:58:18.296Z,1084
2022-10-22T23:00:18.078Z,1075
2022-10-22T23:02:17.907Z,1075
2022-10-22T23:04:18.008Z,1056
2022-10-22T23:06:17.778Z,1070
2022-10-22T23:08:17.659Z,1070
2022-10-22T23:10:17.476Z,1088
2022-10-22T23:12:17.509Z,1089
2022-10-22T23:14:18.376Z,1076
2022-10-22T23:16:18.227Z,1091
2022-10-22T23:18:23.301Z,1079
2022-10-22T23:20:18.166Z,1115
2022-10-22T23:22:17.973Z,1044
2022-10-22T23:24:17.749Z,1035
2022-10-22T23:26:17.646Z,1033
2022-10-22T23:28:17.464Z,1051
2022-10-22T23:30:18.208Z,1056
2022-10-22T23:32:18.058Z,1056
2022-10-22T23:36:18.116Z,1103
2022-10-22T23:38:18.050Z,983
2022-10-22T23:40:17.863Z,1032
2022-10-22T23:42:17.675Z,900
2022-10-22T23:44:17.477Z,1030
2022-10-22T23:46:18.212Z,1013
2022-10-22T23:48:18.038Z,1017
2022-10-22T23:50:17.864Z,999
2022-10-22T23:52:17.713Z,1004
2022-10-22T23:54:17.568Z,1011
2022-10-22T23:56:18.395Z,1017
2022-10-22T23:58:18.224Z,1042
